sensor_id;sensor_type;location;lat;lon;timestamp;temperature;humidity
19180;DHT22;9722;48.754;8.868;2022-10-18T00:02:01;12.80;99.90
19180;DHT22;9722;48.754;8.868;2022-10-18T00:05:22;12.80;99.90
19180;DHT22;9722;48.754;8.868;2022-10-18T00:08:42;12.80;99.90
19180;DHT22;9722;48.754;8.868;2022-10-18T00:12:03;12.80;99.90
19180;DHT22;9722;48.754;8.868;2022-10-18T00:15:23;12.80;99.90
19180;DHT22;9722;48.754;8.868;2022-10-18T00:18:44;12.70;99.90
19180;DHT22;9722;48.754;8.868;2022-10-18T00:22:07;12.70;99.90
19180;DHT22;9722;48.754;8.868;2022-10-18T00:25:27;12.70;99.90
19180;DHT22;9722;48.754;8.868;2022-10-18T00:28:53;12.60;99.90
19180;DHT22;9722;48.754;8.868;2022-10-18T00:32:14;12.60;99.90
19180;DHT22;9722;48.754;8.868;2022-10-18T00:35:35;12.60;99.90
19180;DHT22;9722;48.754;8.868;2022-10-18T00:38:55;12.60;99.90
19180;DHT22;9722;48.754;8.868;2022-10-18T00:42:18;12.60;99.90
19180;DHT22;9722;48.754;8.868;2022-10-18T00:45:39;12.70;99.90
19180;DHT22;9722;48.754;8.868;2022-10-18T00:49:03;12.70;99.90
19180;DHT22;9722;48.754;8.868;2022-10-18T00:52:34;12.80;99.90
19180;DHT22;9722;48.754;8.868;2022-10-18T00:55:56;12.90;99.90
19180;DHT22;9722;48.754;8.868;2022-10-18T00:59:17;13.00;99.90
19180;DHT22;9722;48.754;8.868;2022-10-18T01:02:40;13.00;99.90
19180;DHT22;9722;48.754;8.868;2022-10-18T01:06:01;13.10;99.90
19180;DHT22;9722;48.754;8.868;2022-10-18T01:16:49;13.20;99.90
19180;DHT22;9722;48.754;8.868;2022-10-18T01:20:42;13.20;99.90
19180;DHT22;9722;48.754;8.868;2022-10-18T01:31:46;13.30;99.90
19180;DHT22;9722;48.754;8.868;2022-10-18T01:35:16;13.30;99.90
19180;DHT22;9722;48.754;8.868;2022-10-18T01:38:38;13.40;99.90
19180;DHT22;9722;48.754;8.868;2022-10-18T01:42:03;13.50;99.90
19180;DHT22;9722;48.754;8.868;2022-10-18T01:45:25;13.50;99.90
19180;DHT22;9722;48.754;8.868;2022-10-18T01:48:47;13.60;99.90
19180;DHT22;9722;48.754;8.868;2022-10-18T01:52:12;13.60;99.90
19180;DHT22;9722;48.754;8.868;2022-10-18T01:55:41;13.60;99.90
19180;DHT22;9722;48.754;8.868;2022-10-18T02:06:27;13.70;99.90
19180;DHT22;9722;48.754;8.868;2022-10-18T02:10:10;13.80;99.90
19180;DHT22;9722;48.754;8.868;2022-10-18T02:13:39;13.80;99.90
19180;DHT22;9722;48.754;8.868;2022-10-18T02:17:02;13.90;99.90
19180;DHT22;9722;48.754;8.868;2022-10-18T02:20:26;13.90;99.90
19180;DHT22;9722;48.754;8.868;2022-10-18T02:23:48;13.90;99.90
19180;DHT22;9722;48.754;8.868;2022-10-18T02:27:09;13.90;99.90
19180;DHT22;9722;48.754;8.868;2022-10-18T02:30:41;14.00;99.90
19180;DHT22;9722;48.754;8.868;2022-10-18T02:37:40;14.10;99.90
19180;DHT22;9722;48.754;8.868;2022-10-18T02:41:01;14.10;99.90
19180;DHT22;9722;48.754;8.868;2022-10-18T02:44:22;14.10;99.90
19180;DHT22;9722;48.754;8.868;2022-10-18T02:47:43;14.10;99.90
19180;DHT22;9722;48.754;8.868;2022-10-18T02:51:03;14.10;99.90
19180;DHT22;9722;48.754;8.868;2022-10-18T02:54:24;14.10;99.90
19180;DHT22;9722;48.754;8.868;2022-10-18T02:57:44;14.10;99.90
19180;DHT22;9722;48.754;8.868;2022-10-18T03:01:05;14.10;99.90
19180;DHT22;9722;48.754;8.868;2022-10-18T03:04:25;14.10;99.90
19180;DHT22;9722;48.754;8.868;2022-10-18T03:07:46;14.10;99.90
19180;DHT22;9722;48.754;8.868;2022-10-18T03:11:06;14.10;99.90
19180;DHT22;9722;48.754;8.868;2022-10-18T03:14:27;14.10;99.90
19180;DHT22;9722;48.754;8.868;2022-10-18T03:17:47;14.00;99.90
19180;DHT22;9722;48.754;8.868;2022-10-18T03:21:08;14.00;99.90
19180;DHT22;9722;48.754;8.868;2022-10-18T03:24:29;14.00;99.90
19180;DHT22;9722;48.754;8.868;2022-10-18T03:27:50;14.00;99.90
19180;DHT22;9722;48.754;8.868;2022-10-18T03:31:10;13.90;99.90
19180;DHT22;9722;48.754;8.868;2022-10-18T03:34:31;13.90;99.90
19180;DHT22;9722;48.754;8.868;2022-10-18T03:37:52;13.90;99.90
19180;DHT22;9722;48.754;8.868;2022-10-18T03:41:13;13.90;99.90
19180;DHT22;9722;48.754;8.868;2022-10-18T03:44:33;14.00;99.90
19180;DHT22;9722;48.754;8.868;2022-10-18T03:47:57;13.90;99.90
19180;DHT22;9722;48.754;8.868;2022-10-18T03:51:17;13.90;99.90
19180;DHT22;9722;48.754;8.868;2022-10-18T03:54:38;13.90;99.90
19180;DHT22;9722;48.754;8.868;2022-10-18T03:57:59;13.80;99.90
19180;DHT22;9722;48.754;8.868;2022-10-18T04:01:19;13.80;99.90
19180;DHT22;9722;48.754;8.868;2022-10-18T04:04:40;13.80;99.90
19180;DHT22;9722;48.754;8.868;2022-10-18T04:08:00;13.70;99.90
19180;DHT22;9722;48.754;8.868;2022-10-18T04:11:21;13.60;99.90
19180;DHT22;9722;48.754;8.868;2022-10-18T04:14:42;13.50;99.90
19180;DHT22;9722;48.754;8.868;2022-10-18T04:18:03;13.40;99.90
19180;DHT22;9722;48.754;8.868;2022-10-18T04:21:23;13.40;99.90
19180;DHT22;9722;48.754;8.868;2022-10-18T04:24:44;13.30;99.90
19180;DHT22;9722;48.754;8.868;2022-10-18T04:28:04;13.30;99.90
19180;DHT22;9722;48.754;8.868;2022-10-18T04:31:25;13.30;99.90
19180;DHT22;9722;48.754;8.868;2022-10-18T04:34:46;13.40;99.90
19180;DHT22;9722;48.754;8.868;2022-10-18T04:38:06;13.40;99.90
19180;DHT22;9722;48.754;8.868;2022-10-18T04:41:27;13.40;99.90
19180;DHT22;9722;48.754;8.868;2022-10-18T04:44:48;13.40;99.90
19180;DHT22;9722;48.754;8.868;2022-10-18T04:48:08;13.40;99.90
19180;DHT22;9722;48.754;8.868;2022-10-18T04:51:29;13.50;99.90
19180;DHT22;9722;48.754;8.868;2022-10-18T04:54:50;13.50;99.90
19180;DHT22;9722;48.754;8.868;2022-10-18T04:58:10;13.50;99.90
19180;DHT22;9722;48.754;8.868;2022-10-18T05:01:31;13.60;99.90
19180;DHT22;9722;48.754;8.868;2022-10-18T05:04:51;13.60;99.90
19180;DHT22;9722;48.754;8.868;2022-10-18T05:08:12;13.60;99.90
19180;DHT22;9722;48.754;8.868;2022-10-18T05:11:33;13.50;99.90
19180;DHT22;9722;48.754;8.868;2022-10-18T05:14:53;13.50;99.90
19180;DHT22;9722;48.754;8.868;2022-10-18T05:18:14;13.40;99.90
19180;DHT22;9722;48.754;8.868;2022-10-18T05:21:34;13.30;99.90
19180;DHT22;9722;48.754;8.868;2022-10-18T05:24:55;13.20;99.90
19180;DHT22;9722;48.754;8.868;2022-10-18T05:28:15;13.20;99.90
19180;DHT22;9722;48.754;8.868;2022-10-18T05:31:36;13.10;99.90
19180;DHT22;9722;48.754;8.868;2022-10-18T05:34:57;13.10;99.90
19180;DHT22;9722;48.754;8.868;2022-10-18T05:38:20;13.00;99.90
19180;DHT22;9722;48.754;8.868;2022-10-18T05:41:43;12.90;99.90
19180;DHT22;9722;48.754;8.868;2022-10-18T05:45:04;12.90;99.90
19180;DHT22;9722;48.754;8.868;2022-10-18T05:48:27;12.80;99.90
19180;DHT22;9722;48.754;8.868;2022-10-18T05:51:48;12.80;99.90
19180;DHT22;9722;48.754;8.868;2022-10-18T05:55:08;12.80;99.90
19180;DHT22;9722;48.754;8.868;2022-10-18T05:58:29;12.80;99.90
19180;DHT22;9722;48.754;8.868;2022-10-18T06:01:49;12.70;99.90
19180;DHT22;9722;48.754;8.868;2022-10-18T06:05:10;12.80;99.90
19180;DHT22;9722;48.754;8.868;2022-10-18T06:08:31;12.90;99.90
19180;DHT22;9722;48.754;8.868;2022-10-18T06:11:52;12.90;99.90
19180;DHT22;9722;48.754;8.868;2022-10-18T06:15:12;13.00;99.90
19180;DHT22;9722;48.754;8.868;2022-10-18T06:18:33;13.00;99.90
19180;DHT22;9722;48.754;8.868;2022-10-18T06:21:53;13.10;99.90
19180;DHT22;9722;48.754;8.868;2022-10-18T06:25:14;13.20;99.90
19180;DHT22;9722;48.754;8.868;2022-10-18T06:28:36;13.30;99.90
19180;DHT22;9722;48.754;8.868;2022-10-18T06:31:56;13.50;99.90
19180;DHT22;9722;48.754;8.868;2022-10-18T06:35:17;13.60;99.90
19180;DHT22;9722;48.754;8.868;2022-10-18T06:38:37;13.70;99.90
19180;DHT22;9722;48.754;8.868;2022-10-18T06:41:58;13.80;99.90
19180;DHT22;9722;48.754;8.868;2022-10-18T06:45:19;13.90;99.90
19180;DHT22;9722;48.754;8.868;2022-10-18T06:48:39;14.00;99.90
19180;DHT22;9722;48.754;8.868;2022-10-18T06:52:00;14.00;99.90
19180;DHT22;9722;48.754;8.868;2022-10-18T06:55:20;14.20;99.90
19180;DHT22;9722;48.754;8.868;2022-10-18T06:58:41;14.20;99.90
19180;DHT22;9722;48.754;8.868;2022-10-18T07:02:01;14.30;99.90
19180;DHT22;9722;48.754;8.868;2022-10-18T07:05:22;14.40;99.90
19180;DHT22;9722;48.754;8.868;2022-10-18T07:08:43;14.50;99.90
19180;DHT22;9722;48.754;8.868;2022-10-18T07:12:03;14.50;99.90
19180;DHT22;9722;48.754;8.868;2022-10-18T07:15:24;14.60;99.90
19180;DHT22;9722;48.754;8.868;2022-10-18T07:18:47;14.70;99.90
19180;DHT22;9722;48.754;8.868;2022-10-18T07:22:08;14.90;99.90
19180;DHT22;9722;48.754;8.868;2022-10-18T07:25:30;15.00;99.90
19180;DHT22;9722;48.754;8.868;2022-10-18T07:28:54;15.20;99.90
19180;DHT22;9722;48.754;8.868;2022-10-18T07:32:15;15.40;99.90
19180;DHT22;9722;48.754;8.868;2022-10-18T07:35:35;15.60;99.90
19180;DHT22;9722;48.754;8.868;2022-10-18T07:38:56;15.80;99.90
19180;DHT22;9722;48.754;8.868;2022-10-18T07:42:16;16.00;99.90
19180;DHT22;9722;48.754;8.868;2022-10-18T07:45:37;16.10;99.90
19180;DHT22;9722;48.754;8.868;2022-10-18T07:48:57;16.30;99.80
19180;DHT22;9722;48.754;8.868;2022-10-18T07:52:18;16.30;99.30
19180;DHT22;9722;48.754;8.868;2022-10-18T07:55:39;16.40;98.90
19180;DHT22;9722;48.754;8.868;2022-10-18T07:58:59;16.50;99.00
19180;DHT22;9722;48.754;8.868;2022-10-18T08:02:20;16.60;98.50
19180;DHT22;9722;48.754;8.868;2022-10-18T08:05:41;16.70;98.10
19180;DHT22;9722;48.754;8.868;2022-10-18T08:09:02;16.80;97.80
19180;DHT22;9722;48.754;8.868;2022-10-18T08:12:23;16.90;97.60
19180;DHT22;9722;48.754;8.868;2022-10-18T08:15:44;17.00;97.30
19180;DHT22;9722;48.754;8.868;2022-10-18T08:19:04;17.20;97.00
19180;DHT22;9722;48.754;8.868;2022-10-18T08:22:25;17.40;96.60
19180;DHT22;9722;48.754;8.868;2022-10-18T08:25:45;17.60;96.20
19180;DHT22;9722;48.754;8.868;2022-10-18T08:29:06;18.00;95.80
19180;DHT22;9722;48.754;8.868;2022-10-18T08:32:27;18.40;95.00
19180;DHT22;9722;48.754;8.868;2022-10-18T08:35:55;18.70;94.50
19180;DHT22;9722;48.754;8.868;2022-10-18T08:39:16;19.10;93.50
19180;DHT22;9722;48.754;8.868;2022-10-18T08:43:07;19.70;92.50
19180;DHT22;9722;48.754;8.868;2022-10-18T08:46:33;21.20;89.50
19180;DHT22;9722;48.754;8.868;2022-10-18T08:50:01;23.40;78.40
19180;DHT22;9722;48.754;8.868;2022-10-18T08:53:32;24.90;72.00
19180;DHT22;9722;48.754;8.868;2022-10-18T08:57:00;25.90;66.90
19180;DHT22;9722;48.754;8.868;2022-10-18T09:00:23;25.90;65.00
19180;DHT22;9722;48.754;8.868;2022-10-18T09:04:19;25.70;64.60
19180;DHT22;9722;48.754;8.868;2022-10-18T09:07:58;26.10;63.30
19180;DHT22;9722;48.754;8.868;2022-10-18T09:11:28;26.50;61.60
19180;DHT22;9722;48.754;8.868;2022-10-18T09:19:00;26.10;63.00
19180;DHT22;9722;48.754;8.868;2022-10-18T09:22:51;26.90;61.40
19180;DHT22;9722;48.754;8.868;2022-10-18T09:26:20;28.50;58.20
19180;DHT22;9722;48.754;8.868;2022-10-18T09:37:01;32.00;51.20
19180;DHT22;9722;48.754;8.868;2022-10-18T09:40:25;32.80;49.60
19180;DHT22;9722;48.754;8.868;2022-10-18T09:44:21;33.60;47.30
19180;DHT22;9722;48.754;8.868;2022-10-18T09:48:02;34.20;46.20
19180;DHT22;9722;48.754;8.868;2022-10-18T09:51:26;35.00;44.60
19180;DHT22;9722;48.754;8.868;2022-10-18T09:54:57;35.60;43.90
19180;DHT22;9722;48.754;8.868;2022-10-18T09:58:19;36.10;42.50
19180;DHT22;9722;48.754;8.868;2022-10-18T10:01:42;36.40;41.80
19180;DHT22;9722;48.754;8.868;2022-10-18T10:05:02;36.00;41.80
19180;DHT22;9722;48.754;8.868;2022-10-18T10:08:31;35.90;42.10
19180;DHT22;9722;48.754;8.868;2022-10-18T10:11:52;36.50;41.40
19180;DHT22;9722;48.754;8.868;2022-10-18T10:15:19;37.30;40.00
19180;DHT22;9722;48.754;8.868;2022-10-18T10:18:39;37.90;38.60
19180;DHT22;9722;48.754;8.868;2022-10-18T10:22:09;38.50;37.20
19180;DHT22;9722;48.754;8.868;2022-10-18T10:25:34;38.40;37.40
19180;DHT22;9722;48.754;8.868;2022-10-18T10:28:55;38.90;37.10
19180;DHT22;9722;48.754;8.868;2022-10-18T10:32:18;39.60;36.10
19180;DHT22;9722;48.754;8.868;2022-10-18T10:35:40;40.30;35.30
19180;DHT22;9722;48.754;8.868;2022-10-18T10:39:10;40.80;33.90
19180;DHT22;9722;48.754;8.868;2022-10-18T10:42:32;41.30;32.40
19180;DHT22;9722;48.754;8.868;2022-10-18T10:46:09;41.70;32.40
19180;DHT22;9722;48.754;8.868;2022-10-18T10:49:41;41.80;31.20
19180;DHT22;9722;48.754;8.868;2022-10-18T10:53:02;40.70;32.00
19180;DHT22;9722;48.754;8.868;2022-10-18T10:56:30;39.90;32.60
19180;DHT22;9722;48.754;8.868;2022-10-18T10:59:54;38.30;33.60
19180;DHT22;9722;48.754;8.868;2022-10-18T11:03:20;36.70;35.20
19180;DHT22;9722;48.754;8.868;2022-10-18T11:10:32;34.10;38.40
19180;DHT22;9722;48.754;8.868;2022-10-18T11:14:17;33.60;39.50
19180;DHT22;9722;48.754;8.868;2022-10-18T11:21:26;35.20;38.20
19180;DHT22;9722;48.754;8.868;2022-10-18T11:24:47;36.70;37.10
19180;DHT22;9722;48.754;8.868;2022-10-18T11:28:37;38.00;35.70
19180;DHT22;9722;48.754;8.868;2022-10-18T11:32:29;39.30;34.30
19180;DHT22;9722;48.754;8.868;2022-10-18T11:36:15;40.50;32.80
19180;DHT22;9722;48.754;8.868;2022-10-18T11:47:11;41.80;30.80
19180;DHT22;9722;48.754;8.868;2022-10-18T12:05:14;40.50;31.10
19180;DHT22;9722;48.754;8.868;2022-10-18T12:08:39;39.10;32.10
19180;DHT22;9722;48.754;8.868;2022-10-18T12:12:08;37.70;33.50
19180;DHT22;9722;48.754;8.868;2022-10-18T12:15:30;38.00;33.70
19180;DHT22;9722;48.754;8.868;2022-10-18T12:18:56;38.70;32.90
19180;DHT22;9722;48.754;8.868;2022-10-18T12:22:22;39.30;32.40
19180;DHT22;9722;48.754;8.868;2022-10-18T12:25:48;39.90;32.00
19180;DHT22;9722;48.754;8.868;2022-10-18T12:33:04;41.10;30.90
19180;DHT22;9722;48.754;8.868;2022-10-18T12:40:15;41.90;30.30
19180;DHT22;9722;48.754;8.868;2022-10-18T12:43:36;42.00;30.00
19180;DHT22;9722;48.754;8.868;2022-10-18T12:47:02;42.10;29.80
19180;DHT22;9722;48.754;8.868;2022-10-18T12:50:31;42.20;29.80
19180;DHT22;9722;48.754;8.868;2022-10-18T12:54:09;42.10;29.70
19180;DHT22;9722;48.754;8.868;2022-10-18T13:01:12;42.10;29.70
19180;DHT22;9722;48.754;8.868;2022-10-18T13:04:33;42.10;29.50
19180;DHT22;9722;48.754;8.868;2022-10-18T13:08:26;41.20;29.80
19180;DHT22;9722;48.754;8.868;2022-10-18T13:11:42;39.70;30.80
19180;DHT22;9722;48.754;8.868;2022-10-18T13:15:34;39.30;32.00
19180;DHT22;9722;48.754;8.868;2022-10-18T13:26:40;40.60;31.30
19180;DHT22;9722;48.754;8.868;2022-10-18T13:33:39;41.00;31.30
19180;DHT22;9722;48.754;8.868;2022-10-18T13:37:04;41.10;30.80
19180;DHT22;9722;48.754;8.868;2022-10-18T13:40:25;41.20;30.60
19180;DHT22;9722;48.754;8.868;2022-10-18T13:44:09;41.10;30.80
19180;DHT22;9722;48.754;8.868;2022-10-18T13:47:35;41.00;31.00
19180;DHT22;9722;48.754;8.868;2022-10-18T13:51:34;41.10;31.10
19180;DHT22;9722;48.754;8.868;2022-10-18T13:55:31;41.10;31.10
19180;DHT22;9722;48.754;8.868;2022-10-18T13:58:58;40.40;31.40
19180;DHT22;9722;48.754;8.868;2022-10-18T14:06:15;37.20;34.40
19180;DHT22;9722;48.754;8.868;2022-10-18T14:09:47;35.40;36.20
19180;DHT22;9722;48.754;8.868;2022-10-18T14:13:15;33.60;38.60
19180;DHT22;9722;48.754;8.868;2022-10-18T14:16:39;32.10;40.70
19180;DHT22;9722;48.754;8.868;2022-10-18T14:20:25;30.90;42.70
19180;DHT22;9722;48.754;8.868;2022-10-18T14:23:46;30.30;44.20
19180;DHT22;9722;48.754;8.868;2022-10-18T14:27:17;29.80;44.80
19180;DHT22;9722;48.754;8.868;2022-10-18T14:30:58;29.00;46.40
19180;DHT22;9722;48.754;8.868;2022-10-18T14:34:21;28.20;47.90
19180;DHT22;9722;48.754;8.868;2022-10-18T14:37:42;27.40;49.30
19180;DHT22;9722;48.754;8.868;2022-10-18T14:41:13;26.90;50.70
19180;DHT22;9722;48.754;8.868;2022-10-18T14:44:35;26.90;51.40
19180;DHT22;9722;48.754;8.868;2022-10-18T14:48:12;27.70;51.00
19180;DHT22;9722;48.754;8.868;2022-10-18T14:51:35;28.50;50.10
19180;DHT22;9722;48.754;8.868;2022-10-18T14:54:57;29.20;49.40
19180;DHT22;9722;48.754;8.868;2022-10-18T14:58:18;29.70;48.80
19180;DHT22;9722;48.754;8.868;2022-10-18T15:01:38;29.90;48.50
19180;DHT22;9722;48.754;8.868;2022-10-18T15:05:07;29.80;48.50
19180;DHT22;9722;48.754;8.868;2022-10-18T15:08:37;29.70;48.50
19180;DHT22;9722;48.754;8.868;2022-10-18T15:12:01;29.10;49.40
19180;DHT22;9722;48.754;8.868;2022-10-18T15:15:24;27.90;50.70
19180;DHT22;9722;48.754;8.868;2022-10-18T15:19:04;26.90;52.50
19180;DHT22;9722;48.754;8.868;2022-10-18T15:22:27;25.80;54.40
19180;DHT22;9722;48.754;8.868;2022-10-18T15:25:49;24.90;56.10
19180;DHT22;9722;48.754;8.868;2022-10-18T15:29:16;24.20;57.60
19180;DHT22;9722;48.754;8.868;2022-10-18T15:32:47;23.50;59.00
19180;DHT22;9722;48.754;8.868;2022-10-18T15:36:09;23.00;60.60
19180;DHT22;9722;48.754;8.868;2022-10-18T15:39:30;22.50;62.00
19180;DHT22;9722;48.754;8.868;2022-10-18T15:42:53;22.10;63.40
19180;DHT22;9722;48.754;8.868;2022-10-18T15:46:31;21.80;64.80
19180;DHT22;9722;48.754;8.868;2022-10-18T15:49:54;21.50;66.50
19180;DHT22;9722;48.754;8.868;2022-10-18T15:53:22;21.20;67.50
19180;DHT22;9722;48.754;8.868;2022-10-18T15:56:44;20.90;68.90
19180;DHT22;9722;48.754;8.868;2022-10-18T16:00:06;20.80;69.80
19180;DHT22;9722;48.754;8.868;2022-10-18T16:03:27;20.60;70.80
19180;DHT22;9722;48.754;8.868;2022-10-18T16:06:48;20.50;71.60
19180;DHT22;9722;48.754;8.868;2022-10-18T16:10:13;20.30;72.50
19180;DHT22;9722;48.754;8.868;2022-10-18T16:13:33;20.10;73.50
19180;DHT22;9722;48.754;8.868;2022-10-18T16:16:59;19.90;74.30
19180;DHT22;9722;48.754;8.868;2022-10-18T16:20:23;19.80;75.10
19180;DHT22;9722;48.754;8.868;2022-10-18T16:23:44;19.60;75.90
19180;DHT22;9722;48.754;8.868;2022-10-18T16:27:05;19.40;76.70
19180;DHT22;9722;48.754;8.868;2022-10-18T16:30:27;19.20;77.60
19180;DHT22;9722;48.754;8.868;2022-10-18T16:33:51;19.10;78.70
19180;DHT22;9722;48.754;8.868;2022-10-18T16:37:12;18.90;79.60
19180;DHT22;9722;48.754;8.868;2022-10-18T16:40:34;18.80;80.50
19180;DHT22;9722;48.754;8.868;2022-10-18T16:43:55;18.80;81.60
19180;DHT22;9722;48.754;8.868;2022-10-18T16:47:15;18.80;82.40
19180;DHT22;9722;48.754;8.868;2022-10-18T16:50:36;18.70;83.20
19180;DHT22;9722;48.754;8.868;2022-10-18T16:53:56;18.70;84.10
19180;DHT22;9722;48.754;8.868;2022-10-18T16:57:17;18.70;85.00
19180;DHT22;9722;48.754;8.868;2022-10-18T17:00:37;18.60;85.80
19180;DHT22;9722;48.754;8.868;2022-10-18T17:04:00;18.40;86.60
19180;DHT22;9722;48.754;8.868;2022-10-18T17:07:23;18.30;87.90
19180;DHT22;9722;48.754;8.868;2022-10-18T17:10:44;18.10;89.00
19180;DHT22;9722;48.754;8.868;2022-10-18T17:14:05;18.00;90.10
19180;DHT22;9722;48.754;8.868;2022-10-18T17:17:26;17.80;90.60
19180;DHT22;9722;48.754;8.868;2022-10-18T17:20:47;17.70;91.20
19180;DHT22;9722;48.754;8.868;2022-10-18T17:24:08;17.60;91.80
19180;DHT22;9722;48.754;8.868;2022-10-18T17:27:28;17.40;92.30
19180;DHT22;9722;48.754;8.868;2022-10-18T17:30:49;17.30;92.90
19180;DHT22;9722;48.754;8.868;2022-10-18T17:34:09;17.20;93.50
19180;DHT22;9722;48.754;8.868;2022-10-18T17:37:30;17.10;94.10
19180;DHT22;9722;48.754;8.868;2022-10-18T17:40:50;17.00;94.50
19180;DHT22;9722;48.754;8.868;2022-10-18T17:44:12;16.90;94.90
19180;DHT22;9722;48.754;8.868;2022-10-18T17:47:33;16.80;95.30
19180;DHT22;9722;48.754;8.868;2022-10-18T17:50:54;16.70;95.70
19180;DHT22;9722;48.754;8.868;2022-10-18T17:54:14;16.60;96.10
19180;DHT22;9722;48.754;8.868;2022-10-18T17:57:35;16.50;96.40
19180;DHT22;9722;48.754;8.868;2022-10-18T18:00:55;16.40;96.80
19180;DHT22;9722;48.754;8.868;2022-10-18T18:04:16;16.30;97.20
19180;DHT22;9722;48.754;8.868;2022-10-18T18:07:36;16.20;97.60
19180;DHT22;9722;48.754;8.868;2022-10-18T18:10:57;16.10;97.90
19180;DHT22;9722;48.754;8.868;2022-10-18T18:14:17;16.10;98.30
19180;DHT22;9722;48.754;8.868;2022-10-18T18:17:38;16.10;98.60
19180;DHT22;9722;48.754;8.868;2022-10-18T18:20:59;16.10;98.80
19180;DHT22;9722;48.754;8.868;2022-10-18T18:24:19;16.10;99.10
19180;DHT22;9722;48.754;8.868;2022-10-18T18:27:44;16.00;99.20
19180;DHT22;9722;48.754;8.868;2022-10-18T18:31:09;15.90;99.40
19180;DHT22;9722;48.754;8.868;2022-10-18T18:34:30;15.80;99.50
19180;DHT22;9722;48.754;8.868;2022-10-18T18:37:50;15.70;99.70
19180;DHT22;9722;48.754;8.868;2022-10-18T18:41:17;15.60;99.80
19180;DHT22;9722;48.754;8.868;2022-10-18T18:44:37;15.50;99.90
19180;DHT22;9722;48.754;8.868;2022-10-18T18:47:58;15.40;99.90
19180;DHT22;9722;48.754;8.868;2022-10-18T18:51:20;15.30;99.90
19180;DHT22;9722;48.754;8.868;2022-10-18T18:54:40;15.30;99.90
19180;DHT22;9722;48.754;8.868;2022-10-18T18:58:01;15.20;99.90
19180;DHT22;9722;48.754;8.868;2022-10-18T19:01:26;15.10;99.90
19180;DHT22;9722;48.754;8.868;2022-10-18T19:04:47;15.10;99.90
19180;DHT22;9722;48.754;8.868;2022-10-18T19:08:08;15.00;99.90
19180;DHT22;9722;48.754;8.868;2022-10-18T19:11:34;15.00;99.90
19180;DHT22;9722;48.754;8.868;2022-10-18T19:14:55;14.90;99.90
19180;DHT22;9722;48.754;8.868;2022-10-18T19:18:15;14.80;99.90
19180;DHT22;9722;48.754;8.868;2022-10-18T19:21:38;14.70;99.90
19180;DHT22;9722;48.754;8.868;2022-10-18T19:24:59;14.60;99.90
19180;DHT22;9722;48.754;8.868;2022-10-18T19:28:20;14.50;99.90
19180;DHT22;9722;48.754;8.868;2022-10-18T19:31:41;14.30;99.90
19180;DHT22;9722;48.754;8.868;2022-10-18T19:35:01;14.30;99.90
19180;DHT22;9722;48.754;8.868;2022-10-18T19:38:22;14.20;99.90
19180;DHT22;9722;48.754;8.868;2022-10-18T19:41:47;14.20;99.90
19180;DHT22;9722;48.754;8.868;2022-10-18T19:45:08;14.20;99.90
19180;DHT22;9722;48.754;8.868;2022-10-18T19:48:29;14.10;99.90
19180;DHT22;9722;48.754;8.868;2022-10-18T19:51:50;14.10;99.90
19180;DHT22;9722;48.754;8.868;2022-10-18T19:55:10;14.00;99.90
19180;DHT22;9722;48.754;8.868;2022-10-18T19:58:31;13.90;99.90
19180;DHT22;9722;48.754;8.868;2022-10-18T20:01:52;13.90;99.90
19180;DHT22;9722;48.754;8.868;2022-10-18T20:05:12;13.80;99.90
19180;DHT22;9722;48.754;8.868;2022-10-18T20:08:34;13.80;99.90
19180;DHT22;9722;48.754;8.868;2022-10-18T20:11:55;13.80;99.90
19180;DHT22;9722;48.754;8.868;2022-10-18T20:15:15;13.80;99.90
19180;DHT22;9722;48.754;8.868;2022-10-18T20:18:36;13.80;99.90
19180;DHT22;9722;48.754;8.868;2022-10-18T20:21:56;13.80;99.90
19180;DHT22;9722;48.754;8.868;2022-10-18T20:25:17;13.90;99.90
19180;DHT22;9722;48.754;8.868;2022-10-18T20:28:38;14.00;99.90
19180;DHT22;9722;48.754;8.868;2022-10-18T20:31:58;14.00;99.90
19180;DHT22;9722;48.754;8.868;2022-10-18T20:35:19;13.90;99.90
19180;DHT22;9722;48.754;8.868;2022-10-18T20:38:41;13.70;99.90
19180;DHT22;9722;48.754;8.868;2022-10-18T20:42:02;13.60;99.90
19180;DHT22;9722;48.754;8.868;2022-10-18T20:45:23;13.60;99.90
19180;DHT22;9722;48.754;8.868;2022-10-18T20:48:43;13.50;99.90
19180;DHT22;9722;48.754;8.868;2022-10-18T20:52:04;13.50;99.90
19180;DHT22;9722;48.754;8.868;2022-10-18T20:55:24;13.50;99.90
19180;DHT22;9722;48.754;8.868;2022-10-18T20:58:46;13.50;99.90
19180;DHT22;9722;48.754;8.868;2022-10-18T21:02:08;13.50;99.90
19180;DHT22;9722;48.754;8.868;2022-10-18T21:05:29;13.50;99.90
19180;DHT22;9722;48.754;8.868;2022-10-18T21:08:58;13.40;99.90
19180;DHT22;9722;48.754;8.868;2022-10-18T21:12:19;13.40;99.90
19180;DHT22;9722;48.754;8.868;2022-10-18T21:15:39;13.40;99.90
19180;DHT22;9722;48.754;8.868;2022-10-18T21:19:05;13.40;99.90
19180;DHT22;9722;48.754;8.868;2022-10-18T21:22:26;13.40;99.90
19180;DHT22;9722;48.754;8.868;2022-10-18T21:25:47;13.30;99.90
19180;DHT22;9722;48.754;8.868;2022-10-18T21:29:09;13.30;99.90
19180;DHT22;9722;48.754;8.868;2022-10-18T21:32:30;13.20;99.90
19180;DHT22;9722;48.754;8.868;2022-10-18T21:35:50;13.20;99.90
19180;DHT22;9722;48.754;8.868;2022-10-18T21:39:13;13.10;99.90
19180;DHT22;9722;48.754;8.868;2022-10-18T21:42:34;13.10;99.90
19180;DHT22;9722;48.754;8.868;2022-10-18T21:45:56;13.10;99.90
19180;DHT22;9722;48.754;8.868;2022-10-18T21:49:18;13.10;99.90
19180;DHT22;9722;48.754;8.868;2022-10-18T21:52:38;13.00;99.90
19180;DHT22;9722;48.754;8.868;2022-10-18T21:56:04;13.00;99.90
19180;DHT22;9722;48.754;8.868;2022-10-18T21:59:25;12.90;99.90
19180;DHT22;9722;48.754;8.868;2022-10-18T22:02:46;12.90;99.90
19180;DHT22;9722;48.754;8.868;2022-10-18T22:06:08;12.90;99.90
19180;DHT22;9722;48.754;8.868;2022-10-18T22:09:33;12.80;99.90
19180;DHT22;9722;48.754;8.868;2022-10-18T22:12:53;12.80;99.90
19180;DHT22;9722;48.754;8.868;2022-10-18T22:16:15;12.80;99.90
19180;DHT22;9722;48.754;8.868;2022-10-18T22:19:36;12.80;99.90
19180;DHT22;9722;48.754;8.868;2022-10-18T22:22:57;12.80;99.90
19180;DHT22;9722;48.754;8.868;2022-10-18T22:26:23;12.80;99.90
19180;DHT22;9722;48.754;8.868;2022-10-18T22:29:44;12.70;99.90
19180;DHT22;9722;48.754;8.868;2022-10-18T22:33:05;12.70;99.90
19180;DHT22;9722;48.754;8.868;2022-10-18T22:36:26;12.70;99.90
19180;DHT22;9722;48.754;8.868;2022-10-18T22:39:47;12.60;99.90
19180;DHT22;9722;48.754;8.868;2022-10-18T22:43:07;12.60;99.90
19180;DHT22;9722;48.754;8.868;2022-10-18T22:46:28;12.60;99.90
19180;DHT22;9722;48.754;8.868;2022-10-18T22:49:48;12.60;99.90
19180;DHT22;9722;48.754;8.868;2022-10-18T22:53:09;12.50;99.90
19180;DHT22;9722;48.754;8.868;2022-10-18T22:56:29;12.40;99.90
19180;DHT22;9722;48.754;8.868;2022-10-18T22:59:50;12.40;99.90
19180;DHT22;9722;48.754;8.868;2022-10-18T23:03:10;12.40;99.90
19180;DHT22;9722;48.754;8.868;2022-10-18T23:06:33;12.50;99.90
19180;DHT22;9722;48.754;8.868;2022-10-18T23:09:54;12.50;99.90
19180;DHT22;9722;48.754;8.868;2022-10-18T23:13:15;12.60;99.90
19180;DHT22;9722;48.754;8.868;2022-10-18T23:16:35;12.70;99.90
19180;DHT22;9722;48.754;8.868;2022-10-18T23:19:56;12.70;99.90